sensor_id;sensor_type;location;lat;lon;timestamp;pressure;altitude;pressure_sealevel;temperature;humidity
37792;BME280;29527;55.766;37.570;2023-04-24T00:01:15;99775.88;;;11.86;36.91
37792;BME280;29527;55.766;37.570;2023-04-24T00:03:42;99806.16;;;11.98;37.61
37792;BME280;29527;55.766;37.570;2023-04-24T00:06:08;99810.53;;;11.99;36.40
37792;BME280;29527;55.766;37.570;2023-04-24T00:08:36;99798.50;;;11.93;38.17
37792;BME280;29527;55.766;37.570;2023-04-24T00:11:02;99810.63;;;11.87;37.90
37792;BME280;29527;55.766;37.570;2023-04-24T00:13:27;99797.03;;;11.79;37.12
37792;BME280;29527;55.766;37.570;2023-04-24T00:15:56;99803.69;;;11.85;37.42
37792;BME280;29527;55.766;37.570;2023-04-24T00:18:21;99806.66;;;11.82;36.77
37792;BME280;29527;55.766;37.570;2023-04-24T00:20:47;99805.94;;;11.80;38.14
37792;BME280;29527;55.766;37.570;2023-04-24T00:23:13;99820.31;;;11.78;37.86
37792;BME280;29527;55.766;37.570;2023-04-24T00:25:38;99812.66;;;11.74;38.60
37792;BME280;29527;55.766;37.570;2023-04-24T00:28:05;99811.13;;;11.71;39.01
37792;BME280;29527;55.766;37.570;2023-04-24T00:30:31;99804.28;;;11.67;37.94
37792;BME280;29527;55.766;37.570;2023-04-24T00:32:57;99805.69;;;11.61;38.11
37792;BME280;29527;55.766;37.570;2023-04-24T00:35:23;99809.91;;;11.64;37.99
37792;BME280;29527;55.766;37.570;2023-04-24T00:37:48;99802.41;;;11.58;37.73
37792;BME280;29527;55.766;37.570;2023-04-24T00:40:14;99804.22;;;11.57;38.48
37792;BME280;29527;55.766;37.570;2023-04-24T00:42:40;99813.84;;;11.60;37.73
37792;BME280;29527;55.766;37.570;2023-04-24T00:45:06;99814.94;;;11.57;38.23
37792;BME280;29527;55.766;37.570;2023-04-24T00:47:36;99810.19;;;11.61;37.49
37792;BME280;29527;55.766;37.570;2023-04-24T00:50:04;99812.41;;;11.56;38.91
37792;BME280;29527;55.766;37.570;2023-04-24T00:52:32;99804.41;;;11.44;37.78
37792;BME280;29527;55.766;37.570;2023-04-24T00:54:58;99810.97;;;11.52;37.63
37792;BME280;29527;55.766;37.570;2023-04-24T00:57:24;99792.59;;;11.47;36.86
37792;BME280;29527;55.766;37.570;2023-04-24T00:59:51;99733.84;;;11.13;36.72
37792;BME280;29527;55.766;37.570;2023-04-24T01:02:17;99811.56;;;11.55;38.64
37792;BME280;29527;55.766;37.570;2023-04-24T01:04:43;99801.50;;;11.47;37.43
37792;BME280;29527;55.766;37.570;2023-04-24T01:07:09;99810.38;;;11.48;38.28
37792;BME280;29527;55.766;37.570;2023-04-24T01:09:40;99808.69;;;11.47;37.71
37792;BME280;29527;55.766;37.570;2023-04-24T01:12:09;99810.19;;;11.40;37.95
37792;BME280;29527;55.766;37.570;2023-04-24T01:14:34;99819.47;;;11.36;39.14
37792;BME280;29527;55.766;37.570;2023-04-24T01:17:00;99811.66;;;11.32;38.21
37792;BME280;29527;55.766;37.570;2023-04-24T01:19:27;99810.94;;;11.30;38.41
37792;BME280;29527;55.766;37.570;2023-04-24T01:21:53;99809.50;;;11.26;39.29
37792;BME280;29527;55.766;37.570;2023-04-24T01:24:22;99794.94;;;11.19;39.91
37792;BME280;29527;55.766;37.570;2023-04-24T01:26:48;99803.44;;;11.24;38.33
37792;BME280;29527;55.766;37.570;2023-04-24T01:29:13;99807.44;;;11.30;37.28
37792;BME280;29527;55.766;37.570;2023-04-24T01:31:39;99802.91;;;11.30;37.18
37792;BME280;29527;55.766;37.570;2023-04-24T01:34:05;99804.88;;;11.28;38.32
37792;BME280;29527;55.766;37.570;2023-04-24T01:36:31;99801.00;;;11.21;38.65
37792;BME280;29527;55.766;37.570;2023-04-24T01:38:57;99803.97;;;11.18;38.94
37792;BME280;29527;55.766;37.570;2023-04-24T01:41:23;99809.31;;;11.18;38.13
37792;BME280;29527;55.766;37.570;2023-04-24T01:43:49;99805.41;;;11.22;37.40
37792;BME280;29527;55.766;37.570;2023-04-24T01:46:15;99801.88;;;11.22;38.67
37792;BME280;29527;55.766;37.570;2023-04-24T01:48:41;99795.78;;;11.19;37.46
37792;BME280;29527;55.766;37.570;2023-04-24T01:51:06;99743.94;;;10.88;37.63
37792;BME280;29527;55.766;37.570;2023-04-24T01:53:32;99796.38;;;11.23;37.45
37792;BME280;29527;55.766;37.570;2023-04-24T01:55:58;99795.78;;;11.19;38.83
37792;BME280;29527;55.766;37.570;2023-04-24T01:58:24;99794.59;;;11.12;38.72
37792;BME280;29527;55.766;37.570;2023-04-24T02:00:50;99799.13;;;11.12;38.22
37792;BME280;29527;55.766;37.570;2023-04-24T02:03:15;99790.34;;;11.10;38.91
37792;BME280;29527;55.766;37.570;2023-04-24T02:05:43;99788.50;;;11.10;38.08
37792;BME280;29527;55.766;37.570;2023-04-24T02:08:09;99789.13;;;11.14;37.64
37792;BME280;29527;55.766;37.570;2023-04-24T02:10:34;99787.16;;;11.16;37.27
37792;BME280;29527;55.766;37.570;2023-04-24T02:13:00;99790.56;;;11.18;38.77
37792;BME280;29527;55.766;37.570;2023-04-24T02:15:26;99794.22;;;11.17;37.81
37792;BME280;29527;55.766;37.570;2023-04-24T02:17:52;99792.53;;;11.16;38.42
37792;BME280;29527;55.766;37.570;2023-04-24T02:20:17;99755.31;;;11.01;38.95
37792;BME280;29527;55.766;37.570;2023-04-24T02:22:43;99790.91;;;11.25;37.46
37792;BME280;29527;55.766;37.570;2023-04-24T02:25:08;99798.94;;;11.25;38.73
37792;BME280;29527;55.766;37.570;2023-04-24T02:27:34;99799.66;;;11.27;38.12
37792;BME280;29527;55.766;37.570;2023-04-24T02:30:00;99801.22;;;11.29;38.73
37792;BME280;29527;55.766;37.570;2023-04-24T02:32:26;99793.66;;;11.34;37.63
37792;BME280;29527;55.766;37.570;2023-04-24T02:34:52;99806.53;;;11.41;37.59
37792;BME280;29527;55.766;37.570;2023-04-24T02:37:17;99798.22;;;11.44;38.30
37792;BME280;29527;55.766;37.570;2023-04-24T02:39:43;99805.16;;;11.46;38.53
37792;BME280;29527;55.766;37.570;2023-04-24T02:42:08;99802.53;;;11.56;37.24
37792;BME280;29527;55.766;37.570;2023-04-24T02:44:34;99812.03;;;11.60;37.47
37792;BME280;29527;55.766;37.570;2023-04-24T02:47:00;99804.28;;;11.67;36.92
37792;BME280;29527;55.766;37.570;2023-04-24T02:49:26;99809.16;;;11.73;38.28
37792;BME280;29527;55.766;37.570;2023-04-24T02:51:52;99810.19;;;11.82;36.72
37792;BME280;29527;55.766;37.570;2023-04-24T02:54:17;99792.63;;;11.78;36.22
37792;BME280;29527;55.766;37.570;2023-04-24T02:56:43;99811.03;;;12.04;35.80
37792;BME280;29527;55.766;37.570;2023-04-24T02:59:08;99811.94;;;12.14;35.56
37792;BME280;29527;55.766;37.570;2023-04-24T03:01:34;99777.97;;;12.03;35.83
37792;BME280;29527;55.766;37.570;2023-04-24T03:03:59;99803.25;;;12.32;37.11
37792;BME280;29527;55.766;37.570;2023-04-24T03:06:25;99803.53;;;12.39;36.52
37792;BME280;29527;55.766;37.570;2023-04-24T03:08:52;99814.03;;;12.52;36.14
37792;BME280;29527;55.766;37.570;2023-04-24T03:11:18;99813.22;;;12.61;36.76
37792;BME280;29527;55.766;37.570;2023-04-24T03:13:43;99812.25;;;12.72;35.13
37792;BME280;29527;55.766;37.570;2023-04-24T03:16:08;99811.28;;;12.83;35.04
37792;BME280;29527;55.766;37.570;2023-04-24T03:18:34;99813.00;;;12.94;34.68
37792;BME280;29527;55.766;37.570;2023-04-24T03:21:00;99821.09;;;13.03;36.76
37792;BME280;29527;55.766;37.570;2023-04-24T03:23:26;99817.25;;;13.16;34.34
37792;BME280;29527;55.766;37.570;2023-04-24T03:25:51;99824.22;;;13.28;34.96
37792;BME280;29527;55.766;37.570;2023-04-24T03:28:17;99816.97;;;13.39;33.72
37792;BME280;29527;55.766;37.570;2023-04-24T03:30:42;99823.38;;;13.57;34.05
37792;BME280;29527;55.766;37.570;2023-04-24T03:33:08;99825.75;;;13.70;34.45
37792;BME280;29527;55.766;37.570;2023-04-24T03:35:35;99825.72;;;13.90;33.91
37792;BME280;29527;55.766;37.570;2023-04-24T03:38:01;99820.53;;;14.16;32.85
37792;BME280;29527;55.766;37.570;2023-04-24T03:40:27;99823.63;;;14.87;31.96
37792;BME280;29527;55.766;37.570;2023-04-24T03:42:54;99829.09;;;16.21;29.54
37792;BME280;29527;55.766;37.570;2023-04-24T03:45:20;99820.84;;;17.67;27.18
37792;BME280;29527;55.766;37.570;2023-04-24T03:47:45;99819.75;;;19.05;25.08
37792;BME280;29527;55.766;37.570;2023-04-24T03:50:11;99819.69;;;20.29;23.35
37792;BME280;29527;55.766;37.570;2023-04-24T03:52:36;99800.34;;;21.27;21.67
37792;BME280;29527;55.766;37.570;2023-04-24T03:55:02;99825.97;;;22.47;20.13
37792;BME280;29527;55.766;37.570;2023-04-24T03:57:30;99823.78;;;23.40;19.04
37792;BME280;29527;55.766;37.570;2023-04-24T03:59:55;99828.78;;;24.23;18.19
37792;BME280;29527;55.766;37.570;2023-04-24T04:02:21;99818.16;;;25.06;17.27
37792;BME280;29527;55.766;37.570;2023-04-24T04:04:46;99827.44;;;25.70;16.84
37792;BME280;29527;55.766;37.570;2023-04-24T04:07:12;99809.88;;;26.21;16.14
37792;BME280;29527;55.766;37.570;2023-04-24T04:09:38;99835.16;;;26.98;15.25
37792;BME280;29527;55.766;37.570;2023-04-24T04:12:03;99834.66;;;27.62;14.73
37792;BME280;29527;55.766;37.570;2023-04-24T04:14:29;99830.16;;;28.28;14.17
37792;BME280;29527;55.766;37.570;2023-04-24T04:16:54;99835.66;;;28.92;13.46
37792;BME280;29527;55.766;37.570;2023-04-24T04:19:20;99833.78;;;29.56;12.92
37792;BME280;29527;55.766;37.570;2023-04-24T04:21:46;99831.53;;;30.04;12.97
37792;BME280;29527;55.766;37.570;2023-04-24T04:24:16;99838.19;;;30.65;12.17
37792;BME280;29527;55.766;37.570;2023-04-24T04:26:41;99832.56;;;31.10;11.88
37792;BME280;29527;55.766;37.570;2023-04-24T04:29:13;99838.34;;;31.30;11.57
37792;BME280;29527;55.766;37.570;2023-04-24T04:31:38;99835.03;;;31.61;11.33
37792;BME280;29527;55.766;37.570;2023-04-24T04:34:04;99827.38;;;32.11;10.89
37792;BME280;29527;55.766;37.570;2023-04-24T04:36:30;99828.78;;;32.62;10.73
37792;BME280;29527;55.766;37.570;2023-04-24T04:38:55;99831.44;;;33.20;10.41
37792;BME280;29527;55.766;37.570;2023-04-24T04:41:22;99841.75;;;33.72;9.67
37792;BME280;29527;55.766;37.570;2023-04-24T04:43:47;99847.53;;;34.27;9.40
37792;BME280;29527;55.766;37.570;2023-04-24T04:46:13;99835.63;;;34.87;8.97
37792;BME280;29527;55.766;37.570;2023-04-24T04:48:38;99842.34;;;35.31;8.85
37792;BME280;29527;55.766;37.570;2023-04-24T04:51:04;99838.88;;;35.45;8.72
37792;BME280;29527;55.766;37.570;2023-04-24T04:53:30;99837.03;;;35.99;7.98
37792;BME280;29527;55.766;37.570;2023-04-24T04:55:56;99844.91;;;36.46;7.88
37792;BME280;29527;55.766;37.570;2023-04-24T04:58:22;99845.72;;;36.71;7.84
37792;BME280;29527;55.766;37.570;2023-04-24T05:00:47;99844.78;;;37.00;7.63
37792;BME280;29527;55.766;37.570;2023-04-24T05:03:13;99846.53;;;37.34;7.30
37792;BME280;29527;55.766;37.570;2023-04-24T05:05:39;99838.31;;;37.76;6.80
37792;BME280;29527;55.766;37.570;2023-04-24T05:08:07;99850.72;;;38.31;6.66
37792;BME280;29527;55.766;37.570;2023-04-24T05:10:32;99849.28;;;38.75;6.43
37792;BME280;29527;55.766;37.570;2023-04-24T05:12:58;99843.38;;;38.91;6.73
37792;BME280;29527;55.766;37.570;2023-04-24T05:15:23;99840.22;;;39.29;6.13
37792;BME280;29527;55.766;37.570;2023-04-24T05:17:49;99846.44;;;39.63;6.20
37792;BME280;29527;55.766;37.570;2023-04-24T05:20:15;99856.81;;;39.85;6.04
37792;BME280;29527;55.766;37.570;2023-04-24T05:22:40;99847.59;;;40.25;5.91
37792;BME280;29527;55.766;37.570;2023-04-24T05:25:06;99843.25;;;40.51;5.57
37792;BME280;29527;55.766;37.570;2023-04-24T05:27:32;99847.72;;;40.43;5.68
37792;BME280;29527;55.766;37.570;2023-04-24T05:29:57;99844.59;;;40.62;5.45
37792;BME280;29527;55.766;37.570;2023-04-24T05:32:22;99845.84;;;41.05;5.46
37792;BME280;29527;55.766;37.570;2023-04-24T05:34:48;99848.50;;;41.45;4.94
37792;BME280;29527;55.766;37.570;2023-04-24T05:37:14;99848.50;;;41.45;5.01
37792;BME280;29527;55.766;37.570;2023-04-24T05:39:39;99853.63;;;41.61;4.90
37792;BME280;29527;55.766;37.570;2023-04-24T05:42:06;99846.78;;;41.88;4.91
37792;BME280;29527;55.766;37.570;2023-04-24T05:44:31;99844.75;;;42.07;4.37
37792;BME280;29527;55.766;37.570;2023-04-24T05:46:57;99840.47;;;42.39;4.25
37792;BME280;29527;55.766;37.570;2023-04-24T05:49:23;99842.19;;;42.83;4.08
37792;BME280;29527;55.766;37.570;2023-04-24T05:51:48;99834.19;;;43.15;4.26
37792;BME280;29527;55.766;37.570;2023-04-24T05:54:14;99818.88;;;43.58;3.74
37792;BME280;29527;55.766;37.570;2023-04-24T05:56:40;99832.75;;;44.22;3.81
37792;BME280;29527;55.766;37.570;2023-04-24T05:59:05;99829.56;;;44.49;3.54
37792;BME280;29527;55.766;37.570;2023-04-24T06:01:30;99835.88;;;44.83;3.65
37792;BME280;29527;55.766;37.570;2023-04-24T06:03:56;99842.72;;;44.82;3.35
37792;BME280;29527;55.766;37.570;2023-04-24T06:06:23;99845.56;;;44.69;3.17
37792;BME280;29527;55.766;37.570;2023-04-24T06:08:49;99822.53;;;44.67;3.07
37792;BME280;29527;55.766;37.570;2023-04-24T06:11:15;99817.13;;;44.62;3.11
37792;BME280;29527;55.766;37.570;2023-04-24T06:13:40;99832.09;;;45.04;3.28
37792;BME280;29527;55.766;37.570;2023-04-24T06:16:06;99813.50;;;45.02;2.79
37792;BME280;29527;55.766;37.570;2023-04-24T06:18:31;99836.06;;;45.43;3.00
37792;BME280;29527;55.766;37.570;2023-04-24T06:20:57;99836.50;;;45.74;2.72
37792;BME280;29527;55.766;37.570;2023-04-24T06:23:22;99837.44;;;46.10;2.65
37792;BME280;29527;55.766;37.570;2023-04-24T06:25:48;99833.31;;;46.08;2.83
37792;BME280;29527;55.766;37.570;2023-04-24T06:28:13;99830.78;;;46.03;2.70
37792;BME280;29527;55.766;37.570;2023-04-24T06:30:39;99831.88;;;46.82;2.64
37792;BME280;29527;55.766;37.570;2023-04-24T06:33:04;99838.84;;;47.43;2.26
37792;BME280;29527;55.766;37.570;2023-04-24T06:35:30;99833.94;;;47.64;2.13
37792;BME280;29527;55.766;37.570;2023-04-24T06:37:55;99830.69;;;48.08;2.20
37792;BME280;29527;55.766;37.570;2023-04-24T06:40:22;99840.38;;;48.57;1.86
37792;BME280;29527;55.766;37.570;2023-04-24T06:42:48;99832.69;;;49.19;1.43
37792;BME280;29527;55.766;37.570;2023-04-24T06:45:13;99835.44;;;49.12;1.25
37792;BME280;29527;55.766;37.570;2023-04-24T06:47:39;99834.13;;;48.75;1.77
37792;BME280;29527;55.766;37.570;2023-04-24T06:50:05;99825.34;;;48.03;2.04
37792;BME280;29527;55.766;37.570;2023-04-24T06:52:31;99825.16;;;47.92;1.57
37792;BME280;29527;55.766;37.570;2023-04-24T06:55:04;99839.75;;;47.71;2.11
37792;BME280;29527;55.766;37.570;2023-04-24T06:57:31;99826.22;;;48.07;1.97
37792;BME280;29527;55.766;37.570;2023-04-24T06:59:57;99825.28;;;48.50;1.40
37792;BME280;29527;55.766;37.570;2023-04-24T07:02:23;99840.69;;;48.49;1.56
37792;BME280;29527;55.766;37.570;2023-04-24T07:04:49;99830.06;;;48.46;1.42
37792;BME280;29527;55.766;37.570;2023-04-24T07:07:14;99836.84;;;48.64;1.60
37792;BME280;29527;55.766;37.570;2023-04-24T07:09:40;99832.13;;;48.22;1.40
37792;BME280;29527;55.766;37.570;2023-04-24T07:12:10;99844.78;;;46.99;1.88
37792;BME280;29527;55.766;37.570;2023-04-24T07:14:37;99838.44;;;46.18;2.12
37792;BME280;29527;55.766;37.570;2023-04-24T07:17:04;99840.13;;;45.58;2.30
37792;BME280;29527;55.766;37.570;2023-04-24T07:19:30;99836.25;;;45.35;2.56
37792;BME280;29527;55.766;37.570;2023-04-24T07:21:56;99841.88;;;46.43;2.11
37792;BME280;29527;55.766;37.570;2023-04-24T07:24:24;99842.47;;;47.24;1.99
37792;BME280;29527;55.766;37.570;2023-04-24T07:26:50;99840.81;;;47.23;1.83
37792;BME280;29527;55.766;37.570;2023-04-24T07:29:17;99830.53;;;47.54;1.74
37792;BME280;29527;55.766;37.570;2023-04-24T07:31:42;99838.13;;;47.50;1.63
37792;BME280;29527;55.766;37.570;2023-04-24T07:34:08;99834.28;;;47.62;1.54
37792;BME280;29527;55.766;37.570;2023-04-24T07:36:33;99825.31;;;48.53;1.54
37792;BME280;29527;55.766;37.570;2023-04-24T07:38:59;99828.47;;;49.06;1.10
37792;BME280;29527;55.766;37.570;2023-04-24T07:41:25;99834.38;;;49.20;0.96
37792;BME280;29527;55.766;37.570;2023-04-24T07:43:52;99829.91;;;49.61;0.72
37792;BME280;29527;55.766;37.570;2023-04-24T07:46:19;99831.59;;;49.65;0.72
37792;BME280;29527;55.766;37.570;2023-04-24T07:48:45;99839.75;;;49.33;1.08
37792;BME280;29527;55.766;37.570;2023-04-24T07:51:14;99844.13;;;49.23;0.99
37792;BME280;29527;55.766;37.570;2023-04-24T07:53:40;99831.34;;;48.48;1.47
37792;BME280;29527;55.766;37.570;2023-04-24T07:56:05;99840.47;;;47.45;1.36
37792;BME280;29527;55.766;37.570;2023-04-24T07:58:31;99832.50;;;46.39;1.73
37792;BME280;29527;55.766;37.570;2023-04-24T08:00:56;99821.44;;;45.70;2.02
37792;BME280;29527;55.766;37.570;2023-04-24T08:03:22;99808.13;;;45.26;2.02
37792;BME280;29527;55.766;37.570;2023-04-24T08:05:47;99810.63;;;44.74;2.22
37792;BME280;29527;55.766;37.570;2023-04-24T08:08:13;99813.47;;;43.53;3.31
37792;BME280;29527;55.766;37.570;2023-04-24T08:10:39;99824.56;;;41.22;4.07
37792;BME280;29527;55.766;37.570;2023-04-24T08:13:05;99817.81;;;38.56;5.13
37792;BME280;29527;55.766;37.570;2023-04-24T08:15:30;99811.28;;;35.83;6.31
37792;BME280;29527;55.766;37.570;2023-04-24T08:17:56;99818.16;;;33.90;7.71
37792;BME280;29527;55.766;37.570;2023-04-24T08:20:22;99810.94;;;32.37;8.04
37792;BME280;29527;55.766;37.570;2023-04-24T08:22:48;99802.97;;;31.32;9.27
37792;BME280;29527;55.766;37.570;2023-04-24T08:25:14;99810.78;;;30.41;9.88
37792;BME280;29527;55.766;37.570;2023-04-24T08:27:40;99817.81;;;29.58;10.47
37792;BME280;29527;55.766;37.570;2023-04-24T08:30:06;99828.59;;;28.85;10.71
37792;BME280;29527;55.766;37.570;2023-04-24T08:32:33;99817.47;;;28.15;11.36
37792;BME280;29527;55.766;37.570;2023-04-24T08:34:59;99819.75;;;27.70;11.83
37792;BME280;29527;55.766;37.570;2023-04-24T08:37:26;99816.16;;;27.27;11.58
37792;BME280;29527;55.766;37.570;2023-04-24T08:39:52;99806.88;;;26.79;12.28
37792;BME280;29527;55.766;37.570;2023-04-24T08:42:19;99814.84;;;26.69;12.69
37792;BME280;29527;55.766;37.570;2023-04-24T08:44:45;99786.31;;;26.51;13.05
37792;BME280;29527;55.766;37.570;2023-04-24T08:47:11;99810.63;;;26.66;12.97
37792;BME280;29527;55.766;37.570;2023-04-24T08:49:38;99797.66;;;26.73;12.70
37792;BME280;29527;55.766;37.570;2023-04-24T08:52:07;99791.75;;;26.88;13.02
37792;BME280;29527;55.766;37.570;2023-04-24T08:54:36;99790.94;;;26.88;12.95
37792;BME280;29527;55.766;37.570;2023-04-24T08:57:03;99792.31;;;26.78;12.76
37792;BME280;29527;55.766;37.570;2023-04-24T08:59:31;99782.66;;;26.57;12.65
37792;BME280;29527;55.766;37.570;2023-04-24T09:01:57;99783.97;;;26.36;12.95
37792;BME280;29527;55.766;37.570;2023-04-24T09:04:24;99791.75;;;26.20;13.08
37792;BME280;29527;55.766;37.570;2023-04-24T09:06:51;99775.69;;;25.99;13.01
37792;BME280;29527;55.766;37.570;2023-04-24T09:09:17;99773.94;;;25.86;13.26
37792;BME280;29527;55.766;37.570;2023-04-24T09:11:44;99780.16;;;25.74;12.90
37792;BME280;29527;55.766;37.570;2023-04-24T09:14:10;99765.44;;;25.69;13.08
37792;BME280;29527;55.766;37.570;2023-04-24T09:16:36;99786.41;;;25.82;12.85
37792;BME280;29527;55.766;37.570;2023-04-24T09:19:02;99750.97;;;25.61;13.13
37792;BME280;29527;55.766;37.570;2023-04-24T09:21:35;99768.69;;;25.84;12.70
37792;BME280;29527;55.766;37.570;2023-04-24T09:24:04;99783.06;;;25.79;12.98
37792;BME280;29527;55.766;37.570;2023-04-24T09:26:31;99777.44;;;25.49;13.31
37792;BME280;29527;55.766;37.570;2023-04-24T09:28:58;99780.63;;;25.14;13.88
37792;BME280;29527;55.766;37.570;2023-04-24T09:31:27;99772.94;;;24.97;14.17
37792;BME280;29527;55.766;37.570;2023-04-24T09:34:00;99764.97;;;24.89;13.91
37792;BME280;29527;55.766;37.570;2023-04-24T09:36:31;99768.19;;;24.79;14.78
37792;BME280;29527;55.766;37.570;2023-04-24T09:39:01;99763.78;;;24.78;15.13
37792;BME280;29527;55.766;37.570;2023-04-24T09:41:27;99734.28;;;24.80;14.85
37792;BME280;29527;55.766;37.570;2023-04-24T09:43:55;99725.09;;;25.00;14.81
37792;BME280;29527;55.766;37.570;2023-04-24T09:46:28;99754.19;;;25.26;14.78
37792;BME280;29527;55.766;37.570;2023-04-24T09:48:54;99748.25;;;25.29;14.89
37792;BME280;29527;55.766;37.570;2023-04-24T09:51:33;99753.41;;;25.44;14.29
37792;BME280;29527;55.766;37.570;2023-04-24T09:53:59;99738.66;;;25.45;14.03
37792;BME280;29527;55.766;37.570;2023-04-24T09:56:25;99717.91;;;25.31;13.90
37792;BME280;29527;55.766;37.570;2023-04-24T09:58:51;99736.13;;;25.44;13.83
37792;BME280;29527;55.766;37.570;2023-04-24T10:01:30;99739.00;;;25.56;13.49
37792;BME280;29527;55.766;37.570;2023-04-24T10:03:55;99736.13;;;25.44;13.19
37792;BME280;29527;55.766;37.570;2023-04-24T10:06:21;99727.19;;;25.30;13.19
37792;BME280;29527;55.766;37.570;2023-04-24T10:08:48;99734.75;;;25.02;13.77
37792;BME280;29527;55.766;37.570;2023-04-24T10:11:13;99737.53;;;24.57;14.00
37792;BME280;29527;55.766;37.570;2023-04-24T10:13:40;99689.63;;;23.88;14.51
37792;BME280;29527;55.766;37.570;2023-04-24T10:16:06;99739.41;;;23.97;14.87
37792;BME280;29527;55.766;37.570;2023-04-24T10:18:32;99735.22;;;23.88;14.92
37792;BME280;29527;55.766;37.570;2023-04-24T10:21:00;99709.19;;;23.78;15.63
37792;BME280;29527;55.766;37.570;2023-04-24T10:23:26;99737.31;;;24.13;15.30
37792;BME280;29527;55.766;37.570;2023-04-24T10:25:53;99731.13;;;24.31;14.73
37792;BME280;29527;55.766;37.570;2023-04-24T10:28:20;99735.06;;;24.48;14.76
37792;BME280;29527;55.766;37.570;2023-04-24T10:30:46;99722.78;;;24.58;14.58
37792;BME280;29527;55.766;37.570;2023-04-24T10:33:13;99726.72;;;24.75;14.81
37792;BME280;29527;55.766;37.570;2023-04-24T10:35:42;99699.41;;;24.62;14.27
37792;BME280;29527;55.766;37.570;2023-04-24T10:38:12;99716.25;;;24.59;14.26
37792;BME280;29527;55.766;37.570;2023-04-24T10:40:39;99726.09;;;24.28;14.47
37792;BME280;29527;55.766;37.570;2023-04-24T10:43:06;99724.47;;;24.00;14.47
37792;BME280;29527;55.766;37.570;2023-04-24T10:45:34;99717.78;;;23.82;14.79
37792;BME280;29527;55.766;37.570;2023-04-24T10:48:07;99712.94;;;23.84;14.84
37792;BME280;29527;55.766;37.570;2023-04-24T10:50:44;99713.38;;;23.81;14.84
37792;BME280;29527;55.766;37.570;2023-04-24T10:53:18;99708.34;;;23.85;14.88
37792;BME280;29527;55.766;37.570;2023-04-24T10:55:50;99702.84;;;23.91;15.02
37792;BME280;29527;55.766;37.570;2023-04-24T10:58:18;99711.66;;;24.07;15.34
37792;BME280;29527;55.766;37.570;2023-04-24T11:00:56;99707.13;;;24.33;14.86
37792;BME280;29527;55.766;37.570;2023-04-24T11:03:30;99699.28;;;24.50;14.52
37792;BME280;29527;55.766;37.570;2023-04-24T11:06:07;99708.25;;;24.64;14.49
37792;BME280;29527;55.766;37.570;2023-04-24T11:08:44;99702.84;;;24.44;14.78
37792;BME280;29527;55.766;37.570;2023-04-24T11:11:14;99712.03;;;24.24;14.94
37792;BME280;29527;55.766;37.570;2023-04-24T11:19:02;99686.63;;;23.97;15.01
37792;BME280;29527;55.766;37.570;2023-04-24T11:21:38;99701.59;;;23.87;14.84
37792;BME280;29527;55.766;37.570;2023-04-24T11:24:23;99702.25;;;23.83;14.77
37792;BME280;29527;55.766;37.570;2023-04-24T11:26:51;99702.69;;;23.59;15.29
37792;BME280;29527;55.766;37.570;2023-04-24T11:29:19;99701.47;;;23.42;15.16
37792;BME280;29527;55.766;37.570;2023-04-24T11:31:46;99663.84;;;23.03;15.29
37792;BME280;29527;55.766;37.570;2023-04-24T11:34:17;99682.94;;;22.90;15.75
37792;BME280;29527;55.766;37.570;2023-04-24T11:36:44;99680.84;;;22.78;15.82
37792;BME280;29527;55.766;37.570;2023-04-24T11:39:10;99648.00;;;22.45;15.77
37792;BME280;29527;55.766;37.570;2023-04-24T11:41:37;99658.91;;;22.45;16.04
37792;BME280;29527;55.766;37.570;2023-04-24T11:44:03;99672.38;;;22.46;16.31
37792;BME280;29527;55.766;37.570;2023-04-24T11:46:31;99632.66;;;22.23;16.14
37792;BME280;29527;55.766;37.570;2023-04-24T11:48:58;99665.88;;;22.47;16.08
37792;BME280;29527;55.766;37.570;2023-04-24T11:51:25;99640.69;;;22.52;16.12
37792;BME280;29527;55.766;37.570;2023-04-24T11:53:53;99647.66;;;22.61;16.27
37792;BME280;29527;55.766;37.570;2023-04-24T11:56:21;99658.16;;;22.71;16.20
37792;BME280;29527;55.766;37.570;2023-04-24T11:58:47;99659.44;;;22.75;15.83
37792;BME280;29527;55.766;37.570;2023-04-24T12:01:13;99649.13;;;22.77;15.78
37792;BME280;29527;55.766;37.570;2023-04-24T12:03:38;99639.25;;;22.90;15.81
37792;BME280;29527;55.766;37.570;2023-04-24T12:06:08;99646.00;;;23.14;15.60
37792;BME280;29527;55.766;37.570;2023-04-24T12:08:34;99612.16;;;23.15;15.16
37792;BME280;29527;55.766;37.570;2023-04-24T12:11:05;99640.94;;;23.51;15.11
37792;BME280;29527;55.766;37.570;2023-04-24T12:13:33;99641.75;;;23.59;15.04
37792;BME280;29527;55.766;37.570;2023-04-24T12:16:01;99640.25;;;23.63;14.65
37792;BME280;29527;55.766;37.570;2023-04-24T12:18:27;99632.88;;;23.70;15.12
37792;BME280;29527;55.766;37.570;2023-04-24T12:20:52;99623.19;;;23.74;14.80
37792;BME280;29527;55.766;37.570;2023-04-24T12:23:37;99617.50;;;23.83;14.68
37792;BME280;29527;55.766;37.570;2023-04-24T12:26:05;99634.97;;;23.68;14.82
37792;BME280;29527;55.766;37.570;2023-04-24T12:28:35;99639.41;;;23.69;14.86
37792;BME280;29527;55.766;37.570;2023-04-24T12:31:02;99638.22;;;23.51;15.05
37792;BME280;29527;55.766;37.570;2023-04-24T12:33:27;99627.50;;;23.36;15.27
37792;BME280;29527;55.766;37.570;2023-04-24T12:35:57;99639.69;;;23.20;15.52
37792;BME280;29527;55.766;37.570;2023-04-24T12:38:25;99605.28;;;22.79;15.87
37792;BME280;29527;55.766;37.570;2023-04-24T12:41:05;99629.41;;;22.75;15.60
37792;BME280;29527;55.766;37.570;2023-04-24T12:43:32;99630.56;;;22.39;15.88
37792;BME280;29527;55.766;37.570;2023-04-24T12:45:57;99626.78;;;22.27;16.17
37792;BME280;29527;55.766;37.570;2023-04-24T12:48:25;99618.56;;;22.20;16.43
37792;BME280;29527;55.766;37.570;2023-04-24T12:50:51;99610.19;;;22.15;16.15
37792;BME280;29527;55.766;37.570;2023-04-24T12:53:17;99602.00;;;22.15;16.32
37792;BME280;29527;55.766;37.570;2023-04-24T12:55:42;99600.53;;;22.19;16.01